New Ulm, MN

8:02 PM CDT on August 31, 2016 (GMT -0500)
New Ulm Municipal

Weather History for KULM - March, 2013

Change the Weather History Date:

Wednesday, March 13, 2013

  Actual Average Record
Temperature  
Mean Temperature 18 °F -  
Max Temperature 26 °F 38 °F 69 °F (2012)
Min Temperature 10 °F 22 °F -11 °F (1993)
Degree Days  
Heating Degree Days 47    
Moisture  
Dew Point 14 °F    
Average Humidity 79    
Maximum Humidity 86    
Minimum Humidity 69    
Precipitation  
Precipitation 0.00 in - - ()
Sea Level Pressure  
Sea Level Pressure 30.31 in    
Wind  
Wind Speed 11 mph (West)    
Max Wind Speed 20 mph    
Max Gust Speed -    
Visibility 10 miles    
Events      
Averages and records for this station are not official NWS values.
T = Trace of Precipitation, MM = Missing Value Source: NWS Daily Summary

Daily Weather History Graph

Daily Weather History Graph

Search for Another Location

Airport or City:

Trip Planner

Search our weather history database for the weather conditions in past years. The results will help you decide how hot, cold, wet, or windy it might be!

Date:

Astronomy

Mar. 13, 2013 Rise Set
Actual Time 7:33 AM CDT 7:21 PM CDT
Civil Twilight 7:04 AM CDT 7:50 PM CDT
Nautical Twilight 6:30 AM CDT 8:24 PM CDT
Astronomical Twilight 5:56 AM CDT 8:58 PM CDT
Moon 8:07 AM CDT (3/13) 9:46 PM CDT (3/13)
Length of Visible Light 12h 46m
Length of Day
11h 48m
Waxing Crescent, 4% of the Moon is Illuminated
Mar 13
Waxing Crescent
Mar 19
First Quarter
Mar 27
Full
Apr 2
Last Quarter
Apr 10
New

Hourly Weather History & Observations

Time (CDT) Temp. Windchill Dew Point Humidity Pressure Visibility Wind Dir Wind Speed Gust Speed Precip Events Conditions
12:13 AM 17.6 °F 1.3 °F 12.2 °F 79% 30.23 in 10.0 mi NW 19.6 mph - N/A   Clear
12:52 AM 17.6 °F 1.7 °F 12.2 °F 79% 30.23 in 10.0 mi NNW 18.4 mph - N/A   Clear
1:13 AM 17.6 °F 3.2 °F 12.2 °F 79% 30.24 in 10.0 mi NW 15.0 mph - N/A   Clear
1:33 AM 17.6 °F 3.7 °F 12.2 °F 79% 30.25 in 10.0 mi NW 13.8 mph - N/A   Clear
1:52 AM 15.8 °F 0.9 °F 12.2 °F 86% 30.25 in 10.0 mi NW 15.0 mph - N/A   Clear
2:13 AM 15.8 °F 0.9 °F 12.2 °F 86% 30.26 in 10.0 mi NW 15.0 mph - N/A   Clear
2:32 AM 15.8 °F 0.9 °F 12.2 °F 86% 30.27 in 10.0 mi NW 15.0 mph - N/A   Clear
3:13 AM 15.8 °F 0.9 °F 10.4 °F 79% 30.27 in 10.0 mi NW 15.0 mph - N/A   Clear
3:32 AM 15.8 °F 2.7 °F 10.4 °F 79% 30.28 in 10.0 mi NW 11.5 mph - N/A   Clear
3:53 AM 15.8 °F 2.7 °F 10.4 °F 79% 30.28 in 10.0 mi NW 11.5 mph - N/A   Clear
4:13 AM 15.8 °F 1.4 °F 10.4 °F 79% 30.29 in 10.0 mi NW 13.8 mph - N/A   Clear
4:33 AM 15.8 °F 2.7 °F 10.4 °F 79% 30.29 in 10.0 mi NW 11.5 mph - N/A   Clear
4:53 AM 15.8 °F 1.4 °F 10.4 °F 79% 30.30 in 10.0 mi WNW 13.8 mph - N/A   Clear
5:12 AM 15.8 °F 2.1 °F 10.4 °F 79% 30.30 in 10.0 mi WNW 12.7 mph - N/A   Clear
5:33 AM 15.8 °F 0.9 °F 10.4 °F 79% 30.32 in 10.0 mi NW 15.0 mph - N/A   Clear
5:53 AM 15.8 °F 1.4 °F 10.4 °F 79% 30.32 in 10.0 mi NW 13.8 mph - N/A   Clear
6:12 AM 15.8 °F 2.1 °F 10.4 °F 79% 30.32 in 10.0 mi NW 12.7 mph - N/A   Clear
6:33 AM 15.8 °F 0.9 °F 10.4 °F 79% 30.33 in 10.0 mi NW 15.0 mph - N/A   Clear
6:53 AM 14.0 °F 0.5 °F 10.4 °F 86% 30.34 in 10.0 mi WNW 11.5 mph - N/A   Clear
7:13 AM 12.2 °F 0.7 °F 8.6 °F 85% 30.34 in 10.0 mi WNW 8.1 mph - N/A   Clear
7:32 AM 10.4 °F -0.4 °F 6.8 °F 85% 30.34 in 10.0 mi WNW 6.9 mph - N/A   Clear
7:53 AM 10.4 °F 0.8 °F 6.8 °F 85% 30.34 in 10.0 mi West 5.8 mph - N/A   Clear
8:13 AM 10.4 °F 2.2 °F 6.8 °F 85% 30.34 in 10.0 mi West 4.6 mph - N/A   Clear
8:32 AM 10.4 °F -0.4 °F 6.8 °F 85% 30.35 in 10.0 mi West 6.9 mph - N/A   Clear
8:53 AM 12.2 °F 1.7 °F 8.6 °F 85% 30.36 in 10.0 mi West 6.9 mph - N/A   Clear
9:13 AM 12.2 °F 2.9 °F 8.6 °F 85% 30.37 in 10.0 mi West 5.8 mph - N/A   Clear
9:32 AM 12.2 °F -1.0 °F 8.6 °F 85% 30.37 in 10.0 mi West 10.4 mph - N/A   Clear
9:53 AM 14.0 °F 2.0 °F 8.6 °F 79% 30.38 in 10.0 mi West 9.2 mph - N/A   Clear
10:13 AM 14.0 °F 2.0 °F 8.6 °F 79% 30.39 in 10.0 mi West 9.2 mph - N/A   Clear
10:33 AM 15.8 °F 5.1 °F 10.4 °F 79% 30.39 in 10.0 mi West 8.1 mph - N/A   Clear
10:53 AM 15.8 °F 6.1 °F 10.4 °F 79% 30.39 in 10.0 mi West 6.9 mph - N/A   Clear
11:13 AM 17.6 °F 7.3 °F 10.4 °F 73% 30.39 in 10.0 mi West 8.1 mph - N/A   Clear
11:33 AM 17.6 °F 6.4 °F 12.2 °F 79% 30.40 in 10.0 mi West 9.2 mph - N/A   Clear
11:53 AM 17.6 °F 6.4 °F 12.2 °F 79% 30.40 in 10.0 mi West 9.2 mph - N/A   Clear
12:13 PM 19.4 °F 9.5 °F 12.2 °F 74% 30.39 in 10.0 mi WNW 8.1 mph - N/A   Clear
12:33 PM 19.4 °F 11.5 °F 12.2 °F 74% 30.39 in 10.0 mi West 5.8 mph - N/A   Clear
12:53 PM 19.4 °F 11.5 °F 14.0 °F 80% 30.38 in 10.0 mi West 5.8 mph - N/A   Clear
1:12 PM 21.2 °F 12.6 °F 15.8 °F 80% 30.38 in 10.0 mi West 6.9 mph - N/A   Clear
1:33 PM 21.2 °F 13.6 °F 15.8 °F 80% 30.38 in 10.0 mi West 5.8 mph - N/A   Clear
1:53 PM 23.0 °F 15.8 °F 15.8 °F 74% 30.37 in 10.0 mi WSW 5.8 mph - N/A   Clear
2:12 PM 23.0 °F 15.8 °F 17.6 °F 80% 30.37 in 10.0 mi WSW 5.8 mph - N/A   Clear
2:33 PM 23.0 °F 15.8 °F 15.8 °F 74% 30.36 in 10.0 mi West 5.8 mph - N/A   Clear
2:53 PM 24.8 °F 16.9 °F 17.6 °F 74% 30.36 in 10.0 mi West 6.9 mph - N/A   Clear
3:12 PM 24.8 °F 16.1 °F 17.6 °F 74% 30.35 in 10.0 mi West 8.1 mph - N/A   Clear
3:33 PM 24.8 °F 17.9 °F 17.6 °F 74% 30.35 in 10.0 mi West 5.8 mph - N/A   Clear
3:53 PM 24.8 °F 19.1 °F 17.6 °F 74% 30.35 in 10.0 mi West 4.6 mph - N/A   Clear
4:12 PM 24.8 °F 19.1 °F 17.6 °F 74% 30.34 in 10.0 mi West 4.6 mph - N/A   Clear
4:33 PM 26.6 °F - 17.6 °F 69% 30.33 in 10.0 mi Calm Calm - N/A   Clear
4:53 PM 24.8 °F - 17.6 °F 74% 30.32 in 10.0 mi Calm Calm - N/A   Clear
5:12 PM 26.6 °F - 17.6 °F 69% 30.31 in 10.0 mi Calm Calm - N/A   Clear
5:33 PM 26.6 °F 21.2 °F 19.4 °F 74% 30.30 in 10.0 mi South 4.6 mph - N/A   Clear
5:53 PM 26.6 °F 21.2 °F 19.4 °F 74% 30.30 in 10.0 mi South 4.6 mph - N/A   Clear
6:12 PM 26.6 °F 21.2 °F 19.4 °F 74% 30.30 in 10.0 mi South 4.6 mph - N/A   Clear
6:33 PM 26.6 °F 21.2 °F 19.4 °F 74% 30.30 in 10.0 mi South 4.6 mph - N/A   Clear
6:53 PM 26.6 °F 21.2 °F 19.4 °F 74% 30.30 in 10.0 mi SSE 4.6 mph - N/A   Clear
7:12 PM 26.6 °F 22.6 °F 19.4 °F 74% 30.30 in 10.0 mi SSE 3.5 mph - N/A   Clear
7:33 PM 24.8 °F 17.9 °F 19.4 °F 80% 30.29 in 10.0 mi SE 5.8 mph - N/A   Clear
7:53 PM 24.8 °F 19.1 °F 19.4 °F 80% 30.28 in 10.0 mi SE 4.6 mph - N/A   Clear
8:13 PM 24.8 °F 19.1 °F 19.4 °F 80% 30.28 in 10.0 mi SE 4.6 mph - N/A   Clear
8:33 PM 26.6 °F 20.0 °F 19.4 °F 74% 30.27 in 10.0 mi South 5.8 mph - N/A   Clear
8:52 PM 26.6 °F 20.0 °F 19.4 °F 74% 30.27 in 10.0 mi SSE 5.8 mph - N/A   Clear
9:13 PM 26.6 °F 18.2 °F 21.2 °F 80% 30.26 in 10.0 mi SSE 8.1 mph - N/A   Clear
9:33 PM 26.6 °F 16.8 °F 21.2 °F 80% 30.25 in 10.0 mi SSE 10.4 mph - N/A   Clear
9:52 PM 26.6 °F 18.2 °F 21.2 °F 80% 30.24 in 10.0 mi South 8.1 mph - N/A   Clear
10:13 PM 26.6 °F 17.5 °F 21.2 °F 80% 30.23 in 10.0 mi South 9.2 mph - N/A   Scattered Clouds
10:33 PM 26.6 °F 17.5 °F 21.2 °F 80% 30.23 in 10.0 mi South 9.2 mph - N/A   Mostly Cloudy
10:52 PM 26.6 °F 16.8 °F 21.2 °F 80% 30.23 in 10.0 mi South 10.4 mph - N/A   Overcast
11:13 PM 26.6 °F 16.8 °F 21.2 °F 80% 30.22 in 10.0 mi SSE 10.4 mph - N/A   Overcast
11:33 PM 26.6 °F 16.8 °F 21.2 °F 80% 30.21 in 10.0 mi South 10.4 mph - N/A   Overcast
11:52 PM 26.6 °F 17.5 °F 21.2 °F 80% 30.21 in 10.0 mi South 9.2 mph - N/A   Overcast